sensor_id;sensor_type;location;lat;lon;timestamp;temperature;humidity
18126;DHT22;53956;52.442;13.284;2023-05-14T00:00:46;19.20;70.80
18126;DHT22;53956;52.442;13.284;2023-05-14T00:03:13;19.20;70.90
18126;DHT22;53956;52.442;13.284;2023-05-14T00:05:40;19.20;71.40
18126;DHT22;53956;52.442;13.284;2023-05-14T00:08:06;19.20;70.70
18126;DHT22;53956;52.442;13.284;2023-05-14T00:10:33;19.20;70.80
18126;DHT22;53956;52.442;13.284;2023-05-14T00:13:00;19.20;70.80
18126;DHT22;53956;52.442;13.284;2023-05-14T00:15:26;19.20;71.00
18126;DHT22;53956;52.442;13.284;2023-05-14T00:17:54;19.20;71.40
18126;DHT22;53956;52.442;13.284;2023-05-14T00:20:21;19.10;71.60
18126;DHT22;53956;52.442;13.284;2023-05-14T00:22:47;19.10;71.70
18126;DHT22;53956;52.442;13.284;2023-05-14T00:25:14;19.30;72.00
18126;DHT22;53956;52.442;13.284;2023-05-14T00:27:41;19.10;72.00
18126;DHT22;53956;52.442;13.284;2023-05-14T00:30:08;19.10;72.50
18126;DHT22;53956;52.442;13.284;2023-05-14T00:32:35;19.10;72.90
18126;DHT22;53956;52.442;13.284;2023-05-14T00:35:03;19.00;72.90
18126;DHT22;53956;52.442;13.284;2023-05-14T00:37:30;19.00;73.00
18126;DHT22;53956;52.442;13.284;2023-05-14T00:39:57;19.10;73.00
18126;DHT22;53956;52.442;13.284;2023-05-14T00:42:23;19.10;72.80
18126;DHT22;53956;52.442;13.284;2023-05-14T00:44:51;19.10;73.50
18126;DHT22;53956;52.442;13.284;2023-05-14T00:47:17;18.90;73.40
18126;DHT22;53956;52.442;13.284;2023-05-14T00:49:44;19.00;73.90
18126;DHT22;53956;52.442;13.284;2023-05-14T00:52:13;19.00;73.90
18126;DHT22;53956;52.442;13.284;2023-05-14T00:54:40;19.00;73.80
18126;DHT22;53956;52.442;13.284;2023-05-14T00:57:07;19.10;73.50
18126;DHT22;53956;52.442;13.284;2023-05-14T00:59:34;19.00;73.70
18126;DHT22;53956;52.442;13.284;2023-05-14T01:02:01;19.00;73.30
18126;DHT22;53956;52.442;13.284;2023-05-14T01:04:28;19.00;73.70
18126;DHT22;53956;52.442;13.284;2023-05-14T01:07:05;18.90;73.90
18126;DHT22;53956;52.442;13.284;2023-05-14T01:09:41;19.00;73.50
18126;DHT22;53956;52.442;13.284;2023-05-14T01:12:15;19.00;73.70
18126;DHT22;53956;52.442;13.284;2023-05-14T01:14:46;18.90;73.80
18126;DHT22;53956;52.442;13.284;2023-05-14T01:17:17;18.80;72.80
18126;DHT22;53956;52.442;13.284;2023-05-14T01:19:46;18.80;73.40
18126;DHT22;53956;52.442;13.284;2023-05-14T01:22:14;18.80;71.70
18126;DHT22;53956;52.442;13.284;2023-05-14T01:24:42;18.90;71.40
18126;DHT22;53956;52.442;13.284;2023-05-14T01:27:15;18.90;72.50
18126;DHT22;53956;52.442;13.284;2023-05-14T01:29:46;18.80;72.20
18126;DHT22;53956;52.442;13.284;2023-05-14T01:32:16;18.80;73.10
18126;DHT22;53956;52.442;13.284;2023-05-14T01:34:46;18.70;71.60
18126;DHT22;53956;52.442;13.284;2023-05-14T01:37:15;18.70;73.00
18126;DHT22;53956;52.442;13.284;2023-05-14T01:39:43;18.70;72.60
18126;DHT22;53956;52.442;13.284;2023-05-14T01:42:10;18.70;72.50
18126;DHT22;53956;52.442;13.284;2023-05-14T01:44:38;18.60;72.50
18126;DHT22;53956;52.442;13.284;2023-05-14T01:47:05;18.70;72.10
18126;DHT22;53956;52.442;13.284;2023-05-14T01:49:31;18.70;72.20
18126;DHT22;53956;52.442;13.284;2023-05-14T01:51:58;18.60;70.50
18126;DHT22;53956;52.442;13.284;2023-05-14T01:54:26;18.70;70.70
18126;DHT22;53956;52.442;13.284;2023-05-14T01:56:52;18.70;70.00
18126;DHT22;53956;52.442;13.284;2023-05-14T01:59:19;18.70;69.90
18126;DHT22;53956;52.442;13.284;2023-05-14T02:01:46;18.70;70.30
18126;DHT22;53956;52.442;13.284;2023-05-14T02:04:12;18.70;70.40
18126;DHT22;53956;52.442;13.284;2023-05-14T02:06:40;18.70;69.70
18126;DHT22;53956;52.442;13.284;2023-05-14T02:09:07;18.70;70.10
18126;DHT22;53956;52.442;13.284;2023-05-14T02:11:35;18.70;69.90
18126;DHT22;53956;52.442;13.284;2023-05-14T02:14:01;18.60;70.60
18126;DHT22;53956;52.442;13.284;2023-05-14T02:16:28;18.80;69.00
18126;DHT22;53956;52.442;13.284;2023-05-14T02:18:54;18.80;70.50
18126;DHT22;53956;52.442;13.284;2023-05-14T02:21:21;18.70;70.30
18126;DHT22;53956;52.442;13.284;2023-05-14T02:23:48;18.80;71.00
18126;DHT22;53956;52.442;13.284;2023-05-14T02:26:15;18.80;69.80
18126;DHT22;53956;52.442;13.284;2023-05-14T02:28:44;18.90;69.80
18126;DHT22;53956;52.442;13.284;2023-05-14T02:31:11;18.70;70.30
18126;DHT22;53956;52.442;13.284;2023-05-14T02:33:38;18.80;70.80
18126;DHT22;53956;52.442;13.284;2023-05-14T02:36:05;18.80;69.60
18126;DHT22;53956;52.442;13.284;2023-05-14T02:38:32;18.70;69.90
18126;DHT22;53956;52.442;13.284;2023-05-14T02:40:59;18.80;69.50
18126;DHT22;53956;52.442;13.284;2023-05-14T02:43:25;18.90;68.80
18126;DHT22;53956;52.442;13.284;2023-05-14T02:45:53;18.90;68.40
18126;DHT22;53956;52.442;13.284;2023-05-14T02:48:20;18.90;69.00
18126;DHT22;53956;52.442;13.284;2023-05-14T02:50:48;18.90;68.00
18126;DHT22;53956;52.442;13.284;2023-05-14T02:53:15;18.70;67.70
18126;DHT22;53956;52.442;13.284;2023-05-14T02:55:42;18.80;68.40
18126;DHT22;53956;52.442;13.284;2023-05-14T02:58:08;18.80;69.10
18126;DHT22;53956;52.442;13.284;2023-05-14T03:00:35;18.80;69.70
18126;DHT22;53956;52.442;13.284;2023-05-14T03:03:03;18.80;68.20
18126;DHT22;53956;52.442;13.284;2023-05-14T03:05:30;18.80;69.30
18126;DHT22;53956;52.442;13.284;2023-05-14T03:07:57;18.70;68.90
18126;DHT22;53956;52.442;13.284;2023-05-14T03:10:24;18.70;69.60
18126;DHT22;53956;52.442;13.284;2023-05-14T03:12:50;18.80;69.70
18126;DHT22;53956;52.442;13.284;2023-05-14T03:15:17;18.80;69.20
18126;DHT22;53956;52.442;13.284;2023-05-14T03:17:44;18.70;69.70
18126;DHT22;53956;52.442;13.284;2023-05-14T03:20:12;18.80;68.70
18126;DHT22;53956;52.442;13.284;2023-05-14T03:22:39;18.70;68.50
18126;DHT22;53956;52.442;13.284;2023-05-14T03:25:07;18.80;68.40
18126;DHT22;53956;52.442;13.284;2023-05-14T03:27:34;18.80;68.20
18126;DHT22;53956;52.442;13.284;2023-05-14T03:30:01;18.80;68.00
18126;DHT22;53956;52.442;13.284;2023-05-14T03:32:28;18.90;68.90
18126;DHT22;53956;52.442;13.284;2023-05-14T03:34:55;19.00;70.00
18126;DHT22;53956;52.442;13.284;2023-05-14T03:37:23;19.00;68.80
18126;DHT22;53956;52.442;13.284;2023-05-14T03:39:50;19.00;65.70
18126;DHT22;53956;52.442;13.284;2023-05-14T03:42:16;19.10;67.20
18126;DHT22;53956;52.442;13.284;2023-05-14T03:44:43;19.10;67.30
18126;DHT22;53956;52.442;13.284;2023-05-14T03:47:10;19.10;65.80
18126;DHT22;53956;52.442;13.284;2023-05-14T03:49:37;18.90;65.60
18126;DHT22;53956;52.442;13.284;2023-05-14T03:52:05;18.80;66.00
18126;DHT22;53956;52.442;13.284;2023-05-14T03:54:33;18.90;65.80
18126;DHT22;53956;52.442;13.284;2023-05-14T03:57:00;18.90;66.80
18126;DHT22;53956;52.442;13.284;2023-05-14T03:59:27;18.90;66.10
18126;DHT22;53956;52.442;13.284;2023-05-14T04:01:53;18.90;66.50
18126;DHT22;53956;52.442;13.284;2023-05-14T04:04:20;18.80;65.70
18126;DHT22;53956;52.442;13.284;2023-05-14T04:06:46;18.70;66.90
18126;DHT22;53956;52.442;13.284;2023-05-14T04:09:13;18.80;66.40
18126;DHT22;53956;52.442;13.284;2023-05-14T04:11:41;18.80;66.90
18126;DHT22;53956;52.442;13.284;2023-05-14T04:14:07;18.70;66.70
18126;DHT22;53956;52.442;13.284;2023-05-14T04:16:34;18.60;67.00
18126;DHT22;53956;52.442;13.284;2023-05-14T04:19:02;18.50;67.40
18126;DHT22;53956;52.442;13.284;2023-05-14T04:21:29;18.60;67.50
18126;DHT22;53956;52.442;13.284;2023-05-14T04:23:55;18.40;67.10
18126;DHT22;53956;52.442;13.284;2023-05-14T04:26:22;18.50;67.40
18126;DHT22;53956;52.442;13.284;2023-05-14T04:28:50;18.30;67.30
18126;DHT22;53956;52.442;13.284;2023-05-14T04:31:17;18.50;67.20
18126;DHT22;53956;52.442;13.284;2023-05-14T04:33:44;18.60;67.80
18126;DHT22;53956;52.442;13.284;2023-05-14T04:36:10;19.00;66.50
18126;DHT22;53956;52.442;13.284;2023-05-14T04:38:37;19.00;65.90
18126;DHT22;53956;52.442;13.284;2023-05-14T04:41:04;18.90;66.50
18126;DHT22;53956;52.442;13.284;2023-05-14T04:43:31;19.00;66.20
18126;DHT22;53956;52.442;13.284;2023-05-14T04:45:59;18.70;67.20
18126;DHT22;53956;52.442;13.284;2023-05-14T04:48:26;18.90;66.00
18126;DHT22;53956;52.442;13.284;2023-05-14T04:50:53;18.70;66.60
18126;DHT22;53956;52.442;13.284;2023-05-14T04:53:19;19.00;65.70
18126;DHT22;53956;52.442;13.284;2023-05-14T04:55:46;19.70;64.20
18126;DHT22;53956;52.442;13.284;2023-05-14T04:58:13;20.40;62.20
18126;DHT22;53956;52.442;13.284;2023-05-14T05:00:39;20.90;60.20
18126;DHT22;53956;52.442;13.284;2023-05-14T05:03:07;21.00;58.40
18126;DHT22;53956;52.442;13.284;2023-05-14T05:05:34;21.50;57.90
18126;DHT22;53956;52.442;13.284;2023-05-14T05:08:00;21.90;56.80
18126;DHT22;53956;52.442;13.284;2023-05-14T05:10:27;21.60;56.50
18126;DHT22;53956;52.442;13.284;2023-05-14T05:12:54;21.20;57.20
18126;DHT22;53956;52.442;13.284;2023-05-14T05:15:20;20.90;59.20
18126;DHT22;53956;52.442;13.284;2023-05-14T05:17:47;20.70;59.70
18126;DHT22;53956;52.442;13.284;2023-05-14T05:20:15;21.00;57.40
18126;DHT22;53956;52.442;13.284;2023-05-14T05:22:41;21.40;57.10
18126;DHT22;53956;52.442;13.284;2023-05-14T05:25:08;21.60;56.10
18126;DHT22;53956;52.442;13.284;2023-05-14T05:27:36;21.20;56.50
18126;DHT22;53956;52.442;13.284;2023-05-14T05:30:03;21.30;56.60
18126;DHT22;53956;52.442;13.284;2023-05-14T05:32:31;21.00;57.00
18126;DHT22;53956;52.442;13.284;2023-05-14T05:34:57;20.80;59.30
18126;DHT22;53956;52.442;13.284;2023-05-14T05:37:25;20.30;60.40
18126;DHT22;53956;52.442;13.284;2023-05-14T05:39:52;20.00;61.60
18126;DHT22;53956;52.442;13.284;2023-05-14T05:42:18;20.30;60.50
18126;DHT22;53956;52.442;13.284;2023-05-14T05:44:45;20.00;61.10
18126;DHT22;53956;52.442;13.284;2023-05-14T05:47:11;20.20;61.60
18126;DHT22;53956;52.442;13.284;2023-05-14T05:49:38;20.00;60.80
18126;DHT22;53956;52.442;13.284;2023-05-14T05:52:05;20.20;60.50
18126;DHT22;53956;52.442;13.284;2023-05-14T05:54:33;20.30;60.50
18126;DHT22;53956;52.442;13.284;2023-05-14T05:56:59;20.10;60.50
18126;DHT22;53956;52.442;13.284;2023-05-14T05:59:26;19.90;61.10
18126;DHT22;53956;52.442;13.284;2023-05-14T06:01:53;20.00;61.30
18126;DHT22;53956;52.442;13.284;2023-05-14T06:04:19;20.30;60.40
18126;DHT22;53956;52.442;13.284;2023-05-14T06:06:46;20.30;60.40
18126;DHT22;53956;52.442;13.284;2023-05-14T06:09:13;20.20;61.10
18126;DHT22;53956;52.442;13.284;2023-05-14T06:11:41;20.60;61.40
18126;DHT22;53956;52.442;13.284;2023-05-14T06:14:08;21.10;58.30
18126;DHT22;53956;52.442;13.284;2023-05-14T06:16:34;21.00;58.70
18126;DHT22;53956;52.442;13.284;2023-05-14T06:19:01;21.00;58.40
18126;DHT22;53956;52.442;13.284;2023-05-14T06:21:28;21.20;57.70
18126;DHT22;53956;52.442;13.284;2023-05-14T06:23:54;21.00;58.10
18126;DHT22;53956;52.442;13.284;2023-05-14T06:26:21;21.30;57.30
18126;DHT22;53956;52.442;13.284;2023-05-14T06:28:49;21.40;58.10
18126;DHT22;53956;52.442;13.284;2023-05-14T06:31:16;20.90;58.40
18126;DHT22;53956;52.442;13.284;2023-05-14T06:33:43;20.80;59.90
18126;DHT22;53956;52.442;13.284;2023-05-14T06:36:09;20.40;60.20
18126;DHT22;53956;52.442;13.284;2023-05-14T06:38:37;20.40;60.10
18126;DHT22;53956;52.442;13.284;2023-05-14T06:41:03;20.90;59.10
18126;DHT22;53956;52.442;13.284;2023-05-14T06:43:30;20.60;59.90
18126;DHT22;53956;52.442;13.284;2023-05-14T06:45:58;20.60;60.40
18126;DHT22;53956;52.442;13.284;2023-05-14T06:48:25;20.30;61.30
18126;DHT22;53956;52.442;13.284;2023-05-14T06:50:54;20.40;61.50
18126;DHT22;53956;52.442;13.284;2023-05-14T06:53:20;20.60;62.00
18126;DHT22;53956;52.442;13.284;2023-05-14T06:55:47;20.30;61.00
18126;DHT22;53956;52.442;13.284;2023-05-14T06:58:14;20.10;61.60
18126;DHT22;53956;52.442;13.284;2023-05-14T07:00:40;20.00;61.70
18126;DHT22;53956;52.442;13.284;2023-05-14T07:03:08;20.20;61.70
18126;DHT22;53956;52.442;13.284;2023-05-14T07:05:35;20.10;60.80
18126;DHT22;53956;52.442;13.284;2023-05-14T07:08:01;20.50;61.50
18126;DHT22;53956;52.442;13.284;2023-05-14T07:10:28;20.20;60.20
18126;DHT22;53956;52.442;13.284;2023-05-14T07:12:55;20.30;60.00
18126;DHT22;53956;52.442;13.284;2023-05-14T07:15:21;20.40;61.50
18126;DHT22;53956;52.442;13.284;2023-05-14T07:17:48;20.70;60.80
18126;DHT22;53956;52.442;13.284;2023-05-14T07:20:16;20.70;60.60
18126;DHT22;53956;52.442;13.284;2023-05-14T07:22:42;21.00;60.50
18126;DHT22;53956;52.442;13.284;2023-05-14T07:25:09;20.80;59.90
18126;DHT22;53956;52.442;13.284;2023-05-14T07:27:36;20.70;58.50
18126;DHT22;53956;52.442;13.284;2023-05-14T07:30:03;20.90;56.70
18126;DHT22;53956;52.442;13.284;2023-05-14T07:32:29;20.50;59.30
18126;DHT22;53956;52.442;13.284;2023-05-14T07:34:56;20.80;60.10
18126;DHT22;53956;52.442;13.284;2023-05-14T07:37:24;20.70;59.20
18126;DHT22;53956;52.442;13.284;2023-05-14T07:39:51;20.80;60.40
18126;DHT22;53956;52.442;13.284;2023-05-14T07:42:17;21.10;58.60
18126;DHT22;53956;52.442;13.284;2023-05-14T07:44:44;21.40;57.30
18126;DHT22;53956;52.442;13.284;2023-05-14T07:47:11;21.00;55.70
18126;DHT22;53956;52.442;13.284;2023-05-14T07:49:37;20.90;55.70
18126;DHT22;53956;52.442;13.284;2023-05-14T07:52:04;21.00;56.10
18126;DHT22;53956;52.442;13.284;2023-05-14T07:54:32;21.30;56.20
18126;DHT22;53956;52.442;13.284;2023-05-14T07:56:59;21.70;55.90
18126;DHT22;53956;52.442;13.284;2023-05-14T07:59:25;21.90;57.50
18126;DHT22;53956;52.442;13.284;2023-05-14T08:01:52;21.90;55.30
18126;DHT22;53956;52.442;13.284;2023-05-14T08:04:18;22.00;56.60
18126;DHT22;53956;52.442;13.284;2023-05-14T08:06:47;21.60;54.80
18126;DHT22;53956;52.442;13.284;2023-05-14T08:09:14;21.40;56.00
18126;DHT22;53956;52.442;13.284;2023-05-14T08:11:42;21.80;55.80
18126;DHT22;53956;52.442;13.284;2023-05-14T08:14:08;21.90;54.50
18126;DHT22;53956;52.442;13.284;2023-05-14T08:16:35;22.30;54.70
18126;DHT22;53956;52.442;13.284;2023-05-14T08:19:03;21.90;53.30
18126;DHT22;53956;52.442;13.284;2023-05-14T08:21:29;21.70;53.10
18126;DHT22;53956;52.442;13.284;2023-05-14T08:23:57;21.80;54.60
18126;DHT22;53956;52.442;13.284;2023-05-14T08:26:23;21.90;52.70
18126;DHT22;53956;52.442;13.284;2023-05-14T08:28:51;21.90;53.30
18126;DHT22;53956;52.442;13.284;2023-05-14T08:31:18;22.10;53.20
18126;DHT22;53956;52.442;13.284;2023-05-14T08:33:45;22.60;54.90
18126;DHT22;53956;52.442;13.284;2023-05-14T08:36:12;22.70;53.00
18126;DHT22;53956;52.442;13.284;2023-05-14T08:38:39;22.70;52.90
18126;DHT22;53956;52.442;13.284;2023-05-14T08:41:07;22.90;53.90
18126;DHT22;53956;52.442;13.284;2023-05-14T08:43:39;23.20;52.90
18126;DHT22;53956;52.442;13.284;2023-05-14T08:46:12;22.60;51.90
18126;DHT22;53956;52.442;13.284;2023-05-14T08:48:41;22.60;53.80
18126;DHT22;53956;52.442;13.284;2023-05-14T08:51:08;22.70;51.00
18126;DHT22;53956;52.442;13.284;2023-05-14T08:53:35;22.10;51.90
18126;DHT22;53956;52.442;13.284;2023-05-14T08:56:04;21.90;52.50
18126;DHT22;53956;52.442;13.284;2023-05-14T08:58:31;22.10;51.90
18126;DHT22;53956;52.442;13.284;2023-05-14T09:00:58;21.90;52.50
18126;DHT22;53956;52.442;13.284;2023-05-14T09:03:26;22.20;51.70
18126;DHT22;53956;52.442;13.284;2023-05-14T09:05:53;22.50;53.70
18126;DHT22;53956;52.442;13.284;2023-05-14T09:08:20;22.10;51.70
18126;DHT22;53956;52.442;13.284;2023-05-14T09:10:47;22.20;52.40
18126;DHT22;53956;52.442;13.284;2023-05-14T09:13:14;22.70;52.30
18126;DHT22;53956;52.442;13.284;2023-05-14T09:15:40;22.60;51.10
18126;DHT22;53956;52.442;13.284;2023-05-14T09:18:07;22.60;50.90
18126;DHT22;53956;52.442;13.284;2023-05-14T09:20:35;22.80;51.20
18126;DHT22;53956;52.442;13.284;2023-05-14T09:23:02;22.90;51.80
18126;DHT22;53956;52.442;13.284;2023-05-14T09:25:30;22.90;49.90
18126;DHT22;53956;52.442;13.284;2023-05-14T09:27:58;22.50;50.40
18126;DHT22;53956;52.442;13.284;2023-05-14T09:30:25;22.10;50.60
18126;DHT22;53956;52.442;13.284;2023-05-14T09:32:52;22.50;50.50
18126;DHT22;53956;52.442;13.284;2023-05-14T09:35:23;22.90;49.90
18126;DHT22;53956;52.442;13.284;2023-05-14T09:37:52;22.90;49.80
18126;DHT22;53956;52.442;13.284;2023-05-14T09:40:21;22.70;49.70
18126;DHT22;53956;52.442;13.284;2023-05-14T09:42:48;22.40;50.00
18126;DHT22;53956;52.442;13.284;2023-05-14T09:45:15;22.60;49.80
18126;DHT22;53956;52.442;13.284;2023-05-14T09:47:42;22.50;48.70
18126;DHT22;53956;52.442;13.284;2023-05-14T09:50:09;22.90;49.50
18126;DHT22;53956;52.442;13.284;2023-05-14T09:52:36;23.00;49.10
18126;DHT22;53956;52.442;13.284;2023-05-14T09:55:05;22.90;51.30
18126;DHT22;53956;52.442;13.284;2023-05-14T09:57:32;23.20;50.60
18126;DHT22;53956;52.442;13.284;2023-05-14T09:59:59;23.30;50.20
18126;DHT22;53956;52.442;13.284;2023-05-14T10:02:29;22.60;48.60
18126;DHT22;53956;52.442;13.284;2023-05-14T10:05:02;22.60;48.80
18126;DHT22;53956;52.442;13.284;2023-05-14T10:07:34;22.50;48.90
18126;DHT22;53956;52.442;13.284;2023-05-14T10:10:05;22.50;49.80
18126;DHT22;53956;52.442;13.284;2023-05-14T10:12:36;22.70;50.50
18126;DHT22;53956;52.442;13.284;2023-05-14T10:15:10;22.80;51.20
18126;DHT22;53956;52.442;13.284;2023-05-14T10:17:39;22.70;49.20
18126;DHT22;53956;52.442;13.284;2023-05-14T10:20:07;22.10;49.00
18126;DHT22;53956;52.442;13.284;2023-05-14T10:22:36;22.00;49.80
18126;DHT22;53956;52.442;13.284;2023-05-14T10:25:05;21.80;48.90
18126;DHT22;53956;52.442;13.284;2023-05-14T10:27:32;22.00;49.10
18126;DHT22;53956;52.442;13.284;2023-05-14T10:29:59;22.20;50.60
18126;DHT22;53956;52.442;13.284;2023-05-14T10:32:31;22.00;50.80
18126;DHT22;53956;52.442;13.284;2023-05-14T10:35:00;22.10;49.80
18126;DHT22;53956;52.442;13.284;2023-05-14T10:37:27;22.10;50.30
18126;DHT22;53956;52.442;13.284;2023-05-14T10:39:57;22.10;51.60
18126;DHT22;53956;52.442;13.284;2023-05-14T10:42:27;21.90;50.00
18126;DHT22;53956;52.442;13.284;2023-05-14T10:44:56;21.80;50.20
18126;DHT22;53956;52.442;13.284;2023-05-14T10:47:23;21.70;49.80
18126;DHT22;53956;52.442;13.284;2023-05-14T10:49:53;21.60;50.20
18126;DHT22;53956;52.442;13.284;2023-05-14T10:52:21;21.80;50.30
18126;DHT22;53956;52.442;13.284;2023-05-14T10:54:48;21.80;50.00
18126;DHT22;53956;52.442;13.284;2023-05-14T10:57:17;21.80;50.50
18126;DHT22;53956;52.442;13.284;2023-05-14T10:59:47;21.90;50.50
18126;DHT22;53956;52.442;13.284;2023-05-14T11:02:22;22.00;51.20
18126;DHT22;53956;52.442;13.284;2023-05-14T11:04:57;21.90;50.10
18126;DHT22;53956;52.442;13.284;2023-05-14T11:07:26;21.90;49.50
18126;DHT22;53956;52.442;13.284;2023-05-14T11:09:59;21.80;50.30
18126;DHT22;53956;52.442;13.284;2023-05-14T11:12:26;21.70;50.30
18126;DHT22;53956;52.442;13.284;2023-05-14T11:14:56;21.70;50.40
18126;DHT22;53956;52.442;13.284;2023-05-14T11:17:23;21.80;49.30
18126;DHT22;53956;52.442;13.284;2023-05-14T11:19:50;22.00;49.70
18126;DHT22;53956;52.442;13.284;2023-05-14T11:22:17;22.00;50.30
18126;DHT22;53956;52.442;13.284;2023-05-14T11:24:43;21.90;50.00
18126;DHT22;53956;52.442;13.284;2023-05-14T11:27:10;21.90;50.10
18126;DHT22;53956;52.442;13.284;2023-05-14T11:29:37;22.00;50.80
18126;DHT22;53956;52.442;13.284;2023-05-14T11:32:05;21.80;49.70
18126;DHT22;53956;52.442;13.284;2023-05-14T11:34:32;21.70;49.80
18126;DHT22;53956;52.442;13.284;2023-05-14T11:37:02;21.60;49.40
18126;DHT22;53956;52.442;13.284;2023-05-14T11:39:29;21.70;50.30
18126;DHT22;53956;52.442;13.284;2023-05-14T11:41:57;21.90;50.30
18126;DHT22;53956;52.442;13.284;2023-05-14T11:44:24;21.80;49.70
18126;DHT22;53956;52.442;13.284;2023-05-14T11:46:54;21.70;49.60
18126;DHT22;53956;52.442;13.284;2023-05-14T11:49:22;21.70;50.20
18126;DHT22;53956;52.442;13.284;2023-05-14T11:51:49;21.70;50.00
18126;DHT22;53956;52.442;13.284;2023-05-14T11:54:16;21.70;49.80
18126;DHT22;53956;52.442;13.284;2023-05-14T11:56:48;21.70;50.30
18126;DHT22;53956;52.442;13.284;2023-05-14T11:59:16;21.90;50.00
18126;DHT22;53956;52.442;13.284;2023-05-14T12:01:43;21.80;50.40
18126;DHT22;53956;52.442;13.284;2023-05-14T12:04:11;21.90;51.00
18126;DHT22;53956;52.442;13.284;2023-05-14T12:06:39;22.10;51.80
18126;DHT22;53956;52.442;13.284;2023-05-14T12:09:06;22.10;50.50
18126;DHT22;53956;52.442;13.284;2023-05-14T12:11:35;22.00;50.70
18126;DHT22;53956;52.442;13.284;2023-05-14T12:14:09;22.00;50.70
18126;DHT22;53956;52.442;13.284;2023-05-14T12:16:39;22.10;51.30
18126;DHT22;53956;52.442;13.284;2023-05-14T12:19:07;22.10;51.50
18126;DHT22;53956;52.442;13.284;2023-05-14T12:21:35;22.20;51.40
18126;DHT22;53956;52.442;13.284;2023-05-14T12:24:03;22.20;50.40
18126;DHT22;53956;52.442;13.284;2023-05-14T12:26:31;22.00;51.00
18126;DHT22;53956;52.442;13.284;2023-05-14T12:28:59;21.90;50.50
18126;DHT22;53956;52.442;13.284;2023-05-14T12:31:29;22.00;51.60
18126;DHT22;53956;52.442;13.284;2023-05-14T12:33:56;22.20;51.60
18126;DHT22;53956;52.442;13.284;2023-05-14T12:36:23;22.40;51.40
18126;DHT22;53956;52.442;13.284;2023-05-14T12:38:52;22.50;51.10
18126;DHT22;53956;52.442;13.284;2023-05-14T12:41:23;22.50;51.20
18126;DHT22;53956;52.442;13.284;2023-05-14T12:43:50;22.50;52.70
18126;DHT22;53956;52.442;13.284;2023-05-14T12:46:17;22.60;51.20
18126;DHT22;53956;52.442;13.284;2023-05-14T12:48:43;22.60;49.60
18126;DHT22;53956;52.442;13.284;2023-05-14T12:51:10;22.50;49.40
18126;DHT22;53956;52.442;13.284;2023-05-14T12:53:37;22.60;49.40
18126;DHT22;53956;52.442;13.284;2023-05-14T12:56:05;22.60;49.60
18126;DHT22;53956;52.442;13.284;2023-05-14T12:58:33;22.50;49.70
18126;DHT22;53956;52.442;13.284;2023-05-14T13:00:59;22.40;49.70
18126;DHT22;53956;52.442;13.284;2023-05-14T13:03:26;22.50;49.80
18126;DHT22;53956;52.442;13.284;2023-05-14T13:05:53;22.70;50.40
18126;DHT22;53956;52.442;13.284;2023-05-14T13:08:20;22.60;49.80
18126;DHT22;53956;52.442;13.284;2023-05-14T13:10:49;22.50;49.20
18126;DHT22;53956;52.442;13.284;2023-05-14T13:13:16;22.40;49.40
18126;DHT22;53956;52.442;13.284;2023-05-14T13:15:44;22.60;49.80
18126;DHT22;53956;52.442;13.284;2023-05-14T13:18:11;22.60;50.80
18126;DHT22;53956;52.442;13.284;2023-05-14T13:20:38;22.50;50.10
18126;DHT22;53956;52.442;13.284;2023-05-14T13:23:04;22.40;49.70
18126;DHT22;53956;52.442;13.284;2023-05-14T13:25:31;22.40;49.20
18126;DHT22;53956;52.442;13.284;2023-05-14T13:27:58;22.30;50.10
18126;DHT22;53956;52.442;13.284;2023-05-14T13:30:24;22.40;49.50
18126;DHT22;53956;52.442;13.284;2023-05-14T13:32:52;22.50;50.00
18126;DHT22;53956;52.442;13.284;2023-05-14T13:35:19;22.50;50.60
18126;DHT22;53956;52.442;13.284;2023-05-14T13:37:46;22.30;49.80
18126;DHT22;53956;52.442;13.284;2023-05-14T13:40:13;22.30;48.20
18126;DHT22;53956;52.442;13.284;2023-05-14T13:42:39;22.20;48.00
18126;DHT22;53956;52.442;13.284;2023-05-14T13:45:07;22.10;48.20
18126;DHT22;53956;52.442;13.284;2023-05-14T13:47:33;22.40;48.40
18126;DHT22;53956;52.442;13.284;2023-05-14T13:50:01;22.50;49.50
18126;DHT22;53956;52.442;13.284;2023-05-14T13:52:28;22.40;47.90
18126;DHT22;53956;52.442;13.284;2023-05-14T13:54:55;22.30;48.60
18126;DHT22;53956;52.442;13.284;2023-05-14T13:57:21;22.40;48.10
18126;DHT22;53956;52.442;13.284;2023-05-14T13:59:48;22.30;47.50
18126;DHT22;53956;52.442;13.284;2023-05-14T14:02:15;22.40;48.10
18126;DHT22;53956;52.442;13.284;2023-05-14T14:04:42;22.40;48.10
18126;DHT22;53956;52.442;13.284;2023-05-14T14:07:10;22.40;48.60
18126;DHT22;53956;52.442;13.284;2023-05-14T14:09:36;22.20;47.80
18126;DHT22;53956;52.442;13.284;2023-05-14T14:12:04;22.30;48.30
18126;DHT22;53956;52.442;13.284;2023-05-14T14:14:31;22.20;48.00
18126;DHT22;53956;52.442;13.284;2023-05-14T14:16:57;22.20;48.90
18126;DHT22;53956;52.442;13.284;2023-05-14T14:19:24;22.20;48.50
18126;DHT22;53956;52.442;13.284;2023-05-14T14:21:51;22.20;48.60
18126;DHT22;53956;52.442;13.284;2023-05-14T14:24:19;22.30;49.00
18126;DHT22;53956;52.442;13.284;2023-05-14T14:26:45;22.20;48.20
18126;DHT22;53956;52.442;13.284;2023-05-14T14:29:12;22.40;49.50
18126;DHT22;53956;52.442;13.284;2023-05-14T14:31:39;22.30;49.10
18126;DHT22;53956;52.442;13.284;2023-05-14T14:34:05;22.40;48.40
18126;DHT22;53956;52.442;13.284;2023-05-14T14:36:32;22.20;47.30
18126;DHT22;53956;52.442;13.284;2023-05-14T14:38:58;22.30;47.60
18126;DHT22;53956;52.442;13.284;2023-05-14T14:41:26;22.30;47.40
18126;DHT22;53956;52.442;13.284;2023-05-14T14:43:53;22.30;47.90
18126;DHT22;53956;52.442;13.284;2023-05-14T14:46:19;22.30;47.40
18126;DHT22;53956;52.442;13.284;2023-05-14T14:48:46;22.30;47.60
18126;DHT22;53956;52.442;13.284;2023-05-14T14:51:13;22.50;47.90
18126;DHT22;53956;52.442;13.284;2023-05-14T14:53:39;22.40;47.60
18126;DHT22;53956;52.442;13.284;2023-05-14T14:56:06;22.40;46.80
18126;DHT22;53956;52.442;13.284;2023-05-14T14:58:34;22.40;47.30
18126;DHT22;53956;52.442;13.284;2023-05-14T15:01:01;22.50;47.70
18126;DHT22;53956;52.442;13.284;2023-05-14T15:03:27;22.60;47.90
18126;DHT22;53956;52.442;13.284;2023-05-14T15:05:54;22.70;46.80
18126;DHT22;53956;52.442;13.284;2023-05-14T15:08:24;22.70;47.00
18126;DHT22;53956;52.442;13.284;2023-05-14T15:10:51;22.80;46.50
18126;DHT22;53956;52.442;13.284;2023-05-14T15:13:18;22.70;47.10
18126;DHT22;53956;52.442;13.284;2023-05-14T15:15:46;22.80;47.50